createdAt,value
2018-11-23T00:00:32.497Z,54.09
2018-11-23T00:01:35.901Z,54.04
2018-11-23T00:02:39.321Z,53.17
2018-11-23T00:03:42.729Z,53.48
2018-11-23T00:04:46.180Z,53.73
2018-11-23T00:05:49.605Z,53.78
2018-11-23T00:06:52.992Z,53.24
2018-11-23T00:07:57.136Z,53.20
2018-11-23T00:09:00.525Z,53.18
2018-11-23T00:10:04.080Z,53.84
2018-11-23T00:11:07.470Z,53.80
2018-11-23T00:12:10.842Z,53.65
2018-11-23T00:13:14.301Z,53.96
2018-11-23T00:14:17.781Z,53.79
2018-11-23T00:15:22.284Z,54.22
2018-11-23T00:16:25.713Z,53.63
2018-11-23T00:17:29.112Z,54.44
2018-11-23T00:18:32.547Z,54.10
2018-11-23T00:19:35.991Z,54.64
2018-11-23T00:20:39.389Z,54.90
2018-11-23T00:21:42.758Z,54.44
2018-11-23T00:22:46.263Z,54.67
2018-11-23T00:23:49.674Z,54.18
2018-11-23T00:24:53.120Z,54.17
2018-11-23T00:25:56.535Z,53.87
2018-11-23T00:26:59.927Z,54.35
2018-11-23T00:28:03.453Z,53.77
2018-11-23T00:29:06.873Z,54.04
2018-11-23T00:30:12.461Z,53.41
2018-11-23T00:31:15.976Z,53.56
2018-11-23T00:32:19.350Z,53.44
2018-11-23T00:33:22.721Z,53.69
2018-11-23T00:34:26.126Z,53.44
2018-11-23T00:35:30.707Z,53.54
2018-11-23T00:36:34.118Z,53.65
2018-11-23T00:37:37.515Z,53.84
2018-11-23T00:38:40.916Z,53.82
2018-11-23T00:39:45.106Z,53.88
2018-11-23T00:40:48.513Z,54.21
2018-11-23T00:41:52.117Z,54.32
2018-11-23T00:42:55.823Z,54.47
2018-11-23T00:43:59.262Z,54.48
2018-11-23T00:45:02.800Z,54.23
2018-11-23T00:46:07.150Z,54.39
2018-11-23T00:47:10.551Z,53.93
2018-11-23T00:48:13.970Z,53.97
2018-11-23T00:49:17.398Z,54.67
2018-11-23T00:50:22.022Z,53.93
2018-11-23T00:51:25.457Z,53.68
2018-11-23T00:52:28.875Z,53.90
2018-11-23T00:53:32.302Z,54.12
2018-11-23T00:54:35.721Z,53.47
2018-11-23T00:55:39.143Z,53.53
2018-11-23T00:56:42.568Z,53.55
2018-11-23T00:57:45.997Z,53.67
2018-11-23T00:58:49.424Z,53.71
2018-11-23T00:59:52.870Z,53.92
2018-11-23T01:00:56.256Z,53.18
2018-11-23T01:02:03.776Z,53.67
2018-11-23T01:03:07.181Z,53.76
2018-11-23T01:04:10.624Z,54.15
2018-11-23T01:05:15.679Z,54.17
2018-11-23T01:06:19.118Z,54.17
2018-11-23T01:07:22.586Z,54.30
2018-11-23T01:08:25.985Z,54.50
2018-11-23T01:09:29.375Z,54.18
2018-11-23T01:10:32.807Z,55.02
2018-11-23T01:11:36.261Z,54.67
2018-11-23T01:12:39.906Z,54.69
2018-11-23T01:13:43.429Z,54.74
2018-11-23T01:14:46.807Z,55.00
2018-11-23T01:15:50.242Z,54.06
2018-11-23T01:16:53.653Z,54.63
2018-11-23T01:17:57.083Z,53.99
2018-11-23T01:19:00.500Z,53.76
2018-11-23T01:20:04.187Z,54.21
2018-11-23T01:21:07.664Z,53.87
2018-11-23T01:22:11.179Z,54.35
2018-11-23T01:23:14.574Z,53.63
2018-11-23T01:24:18.258Z,53.89
2018-11-23T01:25:22.642Z,53.55
2018-11-23T01:26:26.209Z,54.07
2018-11-23T01:27:29.610Z,54.17
2018-11-23T01:28:33.041Z,54.00
2018-11-23T01:29:36.480Z,54.18
2018-11-23T01:30:39.992Z,54.28
2018-11-23T01:31:43.753Z,53.94
2018-11-23T01:32:47.301Z,54.29
2018-11-23T01:33:50.775Z,54.57
2018-11-23T01:34:55.503Z,54.11
2018-11-23T01:35:58.943Z,54.72
2018-11-23T01:37:02.610Z,55.19
2018-11-23T01:38:06.111Z,54.72
2018-11-23T01:39:10.679Z,54.50
2018-11-23T01:40:30.172Z,54.35
2018-11-23T01:41:33.609Z,53.98
2018-11-23T01:42:37.084Z,53.93
2018-11-23T01:43:40.459Z,54.52
2018-11-23T01:44:51.316Z,54.51
2018-11-23T01:45:54.746Z,54.34
2018-11-23T01:46:58.157Z,54.04
2018-11-23T01:48:01.692Z,54.07
2018-11-23T01:49:05.668Z,54.14
2018-11-23T01:50:12.308Z,54.21
2018-11-23T01:51:15.898Z,54.32
2018-11-23T01:52:19.335Z,54.13
2018-11-23T01:53:22.755Z,54.55
2018-11-23T01:54:26.174Z,54.59
2018-11-23T01:55:29.577Z,54.32
2018-11-23T01:56:33.308Z,54.93
2018-11-23T01:57:37.246Z,54.61
2018-11-23T01:58:40.827Z,54.54
2018-11-23T01:59:44.296Z,55.22
2018-11-23T02:00:47.739Z,55.07
2018-11-23T02:01:51.170Z,55.15
2018-11-23T02:02:55.238Z,55.54
2018-11-23T02:03:58.678Z,54.92
2018-11-23T02:05:02.101Z,55.23
2018-11-23T02:06:05.646Z,54.47
2018-11-23T02:07:09.071Z,54.65
2018-11-23T02:08:12.908Z,54.14
2018-11-23T02:09:16.450Z,54.84
2018-11-23T02:10:20.629Z,54.44
2018-11-23T02:11:24.430Z,54.38
2018-11-23T02:12:27.868Z,54.01
2018-11-23T02:13:31.346Z,54.20
2018-11-23T02:14:34.786Z,54.04
2018-11-23T02:15:38.189Z,54.29
2018-11-23T02:16:41.607Z,54.38
2018-11-23T02:17:45.195Z,53.86
2018-11-23T02:18:48.609Z,54.34
2018-11-23T02:19:53.748Z,54.19
2018-11-23T02:20:57.305Z,54.07
2018-11-23T02:22:00.726Z,54.75
2018-11-23T02:23:04.114Z,54.55
2018-11-23T02:24:07.571Z,54.32
2018-11-23T02:25:11.062Z,55.00
2018-11-23T02:26:15.142Z,55.00
2018-11-23T02:27:18.567Z,55.51
2018-11-23T02:28:22.041Z,55.19
2018-11-23T02:29:25.552Z,54.90
2018-11-23T02:30:29.060Z,55.24
2018-11-23T02:31:33.027Z,55.42
2018-11-23T02:32:36.806Z,54.63
2018-11-23T02:33:41.308Z,54.65
2018-11-23T02:34:44.762Z,54.36
2018-11-23T02:35:48.427Z,54.80
2018-11-23T02:36:51.909Z,54.13
2018-11-23T02:37:55.400Z,54.33
2018-11-23T02:38:58.872Z,53.86
2018-11-23T02:40:02.299Z,54.27
2018-11-23T02:41:05.846Z,54.00
2018-11-23T02:42:09.524Z,54.55
2018-11-23T02:43:12.947Z,54.92
2018-11-23T02:44:16.793Z,54.54
2018-11-23T02:45:21.418Z,54.83
2018-11-23T02:46:24.848Z,54.85
2018-11-23T02:47:28.448Z,54.56
2018-11-23T02:48:32.361Z,54.81
2018-11-23T02:49:36.293Z,55.25
2018-11-23T02:50:39.712Z,55.17
2018-11-23T02:51:43.220Z,55.11
2018-11-23T02:52:47.170Z,55.07
2018-11-23T02:53:50.623Z,54.73
2018-11-23T02:54:54.038Z,55.62
2018-11-23T02:55:57.592Z,54.76
2018-11-23T02:57:01.068Z,55.03
2018-11-23T02:58:05.100Z,55.38
2018-11-23T02:59:08.783Z,55.29
2018-11-23T03:00:14.896Z,54.51
2018-11-23T03:01:18.413Z,55.00
2018-11-23T03:02:21.843Z,54.51
2018-11-23T03:03:25.321Z,54.53
2018-11-23T03:04:28.765Z,54.43
2018-11-23T03:05:32.184Z,54.46
2018-11-23T03:06:35.854Z,54.30
2018-11-23T03:07:39.361Z,54.75
2018-11-23T03:08:42.813Z,54.51
2018-11-23T03:09:46.297Z,54.27
2018-11-23T03:10:49.735Z,54.87
2018-11-23T03:11:53.161Z,54.58
2018-11-23T03:12:56.586Z,54.40
2018-11-23T03:14:00.110Z,55.01
2018-11-23T03:15:03.746Z,55.09
2018-11-23T03:16:07.183Z,55.10
2018-11-23T03:17:10.628Z,55.23
2018-11-23T03:18:14.118Z,55.11
2018-11-23T03:19:17.631Z,55.53
2018-11-23T03:20:22.164Z,55.63
2018-11-23T03:21:25.715Z,55.69
2018-11-23T03:22:29.191Z,55.33
2018-11-23T03:23:32.739Z,55.18
2018-11-23T03:24:36.186Z,55.04
2018-11-23T03:25:39.663Z,54.89
2018-11-23T03:26:43.093Z,55.02
2018-11-23T03:27:46.522Z,54.76
2018-11-23T03:28:50.037Z,54.32
2018-11-23T03:29:53.438Z,55.07
2018-11-23T03:30:56.889Z,54.54
2018-11-23T03:32:00.351Z,54.46
2018-11-23T03:33:03.798Z,54.50
2018-11-23T03:34:07.434Z,54.77
2018-11-23T03:35:10.923Z,54.45
2018-11-23T03:36:14.890Z,55.22
2018-11-23T03:37:18.647Z,55.06
2018-11-23T03:38:22.063Z,55.19
2018-11-23T03:39:25.559Z,55.49
2018-11-23T03:40:29.021Z,55.03
2018-11-23T03:41:32.431Z,55.11
2018-11-23T03:42:35.843Z,55.63
2018-11-23T03:43:39.304Z,55.94
2018-11-23T03:44:43.032Z,55.81
2018-11-23T03:45:46.606Z,56.11
2018-11-23T03:46:50.048Z,55.78
2018-11-23T03:47:53.458Z,55.94
2018-11-23T03:48:57.076Z,55.51
2018-11-23T03:50:00.822Z,55.51
2018-11-23T03:51:04.254Z,54.20
2018-11-23T03:52:07.914Z,55.10
2018-11-23T03:53:11.361Z,54.77
2018-11-23T03:54:15.025Z,54.39
2018-11-23T03:55:18.588Z,54.67
2018-11-23T03:56:22.007Z,54.36
2018-11-23T03:57:25.472Z,54.61
2018-11-23T03:58:28.868Z,54.81
2018-11-23T03:59:32.382Z,54.32
2018-11-23T04:00:35.796Z,54.56
2018-11-23T04:01:39.217Z,54.56
2018-11-23T04:02:42.686Z,54.63
2018-11-23T04:03:46.482Z,54.74
2018-11-23T04:04:50.035Z,54.94
2018-11-23T04:05:53.510Z,54.93
2018-11-23T04:06:56.910Z,55.01
2018-11-23T04:08:00.584Z,54.87
2018-11-23T04:09:04.705Z,55.39
2018-11-23T04:10:09.797Z,55.21
2018-11-23T04:11:13.255Z,55.27
2018-11-23T04:12:16.760Z,55.57
2018-11-23T04:13:20.206Z,55.57
2018-11-23T04:14:23.627Z,55.85
2018-11-23T04:15:27.084Z,55.17
2018-11-23T04:16:30.561Z,55.21
2018-11-23T04:17:34.018Z,56.00
2018-11-23T04:18:37.582Z,55.33
2018-11-23T04:19:41.009Z,56.06
2018-11-23T04:20:50.773Z,55.91
2018-11-23T04:21:54.363Z,55.73
2018-11-23T04:22:57.880Z,55.90
2018-11-23T04:24:01.331Z,56.36
2018-11-23T04:25:04.903Z,55.68
2018-11-23T04:26:08.561Z,55.82
2018-11-23T04:27:12.142Z,56.38
2018-11-23T04:28:15.698Z,56.63
2018-11-23T04:29:19.236Z,55.60
2018-11-23T04:30:22.675Z,56.35
2018-11-23T04:31:26.195Z,56.29
2018-11-23T04:32:29.711Z,56.13
2018-11-23T04:33:33.183Z,56.55
2018-11-23T04:34:37.008Z,56.61
2018-11-23T04:35:40.464Z,56.55
2018-11-23T04:36:44.610Z,55.77
2018-11-23T04:37:48.996Z,56.12
2018-11-23T04:38:52.670Z,56.25
2018-11-23T04:39:56.081Z,56.60
2018-11-23T04:40:59.738Z,56.55
2018-11-23T04:42:03.293Z,56.19
2018-11-23T04:43:06.860Z,56.85
2018-11-23T04:44:10.284Z,56.85
2018-11-23T04:45:14.337Z,57.26
2018-11-23T04:46:18.058Z,57.13
2018-11-23T04:47:21.619Z,57.44
2018-11-23T04:48:25.253Z,57.02
2018-11-23T04:49:28.685Z,57.17
2018-11-23T04:50:32.348Z,57.63
2018-11-23T04:51:35.801Z,57.56
2018-11-23T04:52:39.317Z,57.96
2018-11-23T04:53:42.923Z,57.57
2018-11-23T04:54:46.361Z,57.04
2018-11-23T04:55:49.841Z,57.19
2018-11-23T04:56:53.298Z,57.51
2018-11-23T04:57:56.790Z,57.59
2018-11-23T04:59:00.181Z,57.90
2018-11-23T05:00:03.763Z,57.80
2018-11-23T05:01:07.573Z,57.54
2018-11-23T05:02:11.108Z,57.90
2018-11-23T05:03:14.830Z,57.62
2018-11-23T05:04:18.270Z,57.38
2018-11-23T05:05:21.786Z,57.86
2018-11-23T05:06:25.282Z,57.78
2018-11-23T05:07:28.721Z,57.92
2018-11-23T05:08:32.535Z,57.58
2018-11-23T05:09:35.983Z,58.38
2018-11-23T05:10:39.446Z,57.49
2018-11-23T05:11:42.886Z,58.14
2018-11-23T05:12:46.807Z,58.54
2018-11-23T05:13:50.351Z,58.42
2018-11-23T05:14:53.749Z,58.57
2018-11-23T05:15:57.251Z,57.81
2018-11-23T05:17:00.711Z,58.03
2018-11-23T05:18:04.570Z,58.23
2018-11-23T05:19:07.983Z,58.50
2018-11-23T05:20:12.101Z,58.69
2018-11-23T05:21:15.554Z,58.73
2018-11-23T05:22:19.004Z,59.05
2018-11-23T05:23:22.419Z,58.52
2018-11-23T05:24:25.856Z,58.58
2018-11-23T05:25:29.304Z,58.31
2018-11-23T05:26:33.357Z,58.52
2018-11-23T05:27:36.927Z,58.17
2018-11-23T05:28:40.360Z,58.89
2018-11-23T05:29:43.809Z,58.32
2018-11-23T05:30:47.277Z,58.54
2018-11-23T05:31:50.703Z,57.31
2018-11-23T05:32:54.558Z,54.91
2018-11-23T05:33:57.973Z,53.36
2018-11-23T05:35:01.401Z,50.41
2018-11-23T05:36:04.869Z,50.04
2018-11-23T05:37:08.397Z,51.32
2018-11-23T05:38:11.859Z,51.78
2018-11-23T05:39:15.499Z,51.41
2018-11-23T05:40:20.415Z,51.13
2018-11-23T05:41:23.907Z,49.99
2018-11-23T05:42:27.362Z,49.88
2018-11-23T05:43:30.810Z,50.32
2018-11-23T05:44:34.260Z,49.15
2018-11-23T05:45:37.818Z,49.47
2018-11-23T05:46:41.276Z,49.54
2018-11-23T05:47:45.088Z,48.90
2018-11-23T05:48:48.744Z,49.11
2018-11-23T05:49:52.171Z,49.50
2018-11-23T05:50:55.783Z,49.15
2018-11-23T05:51:59.234Z,49.57
2018-11-23T05:53:02.703Z,49.36
2018-11-23T05:54:06.527Z,49.66
2018-11-23T05:55:10.584Z,50.11
2018-11-23T05:56:14.093Z,50.39
2018-11-23T05:57:17.877Z,50.43
2018-11-23T05:58:21.297Z,49.90
2018-11-23T05:59:24.683Z,50.91
2018-11-23T06:00:29.755Z,50.07
2018-11-23T06:01:33.299Z,50.30
2018-11-23T06:02:36.932Z,49.31
2018-11-23T06:03:40.443Z,49.16
2018-11-23T06:04:43.885Z,50.17
2018-11-23T06:05:47.537Z,48.82
2018-11-23T06:06:51.018Z,48.52
2018-11-23T06:07:54.576Z,47.75
2018-11-23T06:08:58.333Z,47.99
2018-11-23T06:10:01.807Z,47.49
2018-11-23T06:11:06.319Z,47.43
2018-11-23T06:12:09.787Z,47.65
2018-11-23T06:13:13.234Z,47.11
2018-11-23T06:14:17.138Z,47.42
2018-11-23T06:15:22.667Z,47.23
2018-11-23T06:16:26.094Z,47.78
2018-11-23T06:17:29.762Z,48.37
2018-11-23T06:18:33.448Z,48.62
2018-11-23T06:19:37.014Z,48.16
2018-11-23T06:20:40.673Z,48.95
2018-11-23T06:21:44.099Z,48.38
2018-11-23T06:22:48.564Z,48.38
2018-11-23T06:23:52.112Z,48.20
2018-11-23T06:24:56.120Z,48.98
2018-11-23T06:26:07.186Z,48.50
2018-11-23T06:27:10.667Z,48.46
2018-11-23T06:28:14.538Z,48.67
2018-11-23T06:29:18.540Z,48.55
2018-11-23T06:30:24.585Z,48.96
2018-11-23T06:31:29.533Z,49.12
2018-11-23T06:32:44.560Z,48.96
2018-11-23T06:33:49.631Z,49.08
2018-11-23T06:34:53.530Z,49.53
2018-11-23T06:35:56.960Z,49.35
2018-11-23T06:37:00.415Z,49.75
2018-11-23T06:38:03.856Z,49.21
2018-11-23T06:39:09.305Z,49.09
2018-11-23T06:40:12.793Z,48.30
2018-11-23T06:41:16.322Z,48.75
2018-11-23T06:42:19.793Z,48.17
2018-11-23T06:43:23.432Z,47.99
2018-11-23T06:44:30.054Z,47.85
2018-11-23T06:45:37.017Z,48.02
2018-11-23T06:46:41.869Z,48.03
2018-11-23T06:47:45.319Z,47.60
2018-11-23T06:48:48.750Z,47.91
2018-11-23T06:49:52.143Z,48.02
2018-11-23T06:50:55.912Z,47.34
2018-11-23T06:51:59.310Z,47.53
2018-11-23T06:53:02.747Z,47.79
2018-11-23T06:54:06.327Z,47.82
2018-11-23T06:55:10.666Z,47.71
2018-11-23T06:56:14.383Z,48.07
2018-11-23T06:57:18.207Z,47.04
2018-11-23T06:58:21.779Z,47.68
2018-11-23T06:59:25.237Z,49.14
2018-11-23T07:00:28.693Z,49.33
2018-11-23T07:01:32.409Z,49.07
2018-11-23T07:02:35.828Z,48.91
2018-11-23T07:03:39.277Z,49.19
2018-11-23T07:04:42.869Z,49.12
2018-11-23T07:05:46.480Z,49.47
2018-11-23T07:06:49.986Z,48.79
2018-11-23T07:07:53.420Z,49.29
2018-11-23T07:08:56.829Z,48.59
2018-11-23T07:10:00.248Z,48.74
2018-11-23T07:11:04.203Z,48.34
2018-11-23T07:12:07.659Z,49.23
2018-11-23T07:13:11.163Z,48.69
2018-11-23T07:14:15.581Z,48.57
2018-11-23T07:15:20.521Z,48.96
2018-11-23T07:16:23.944Z,48.34
2018-11-23T07:17:27.783Z,48.44
2018-11-23T07:18:31.357Z,48.76
2018-11-23T07:19:34.933Z,48.92
2018-11-23T07:20:38.535Z,48.42
2018-11-23T07:21:42.089Z,48.97
2018-11-23T07:22:45.621Z,49.24
2018-11-23T07:23:49.241Z,48.93
2018-11-23T07:24:52.641Z,47.92
2018-11-23T07:25:56.137Z,48.51
2018-11-23T07:26:59.533Z,48.61
2018-11-23T07:28:03.064Z,48.79
2018-11-23T07:29:06.579Z,48.73
2018-11-23T07:30:17.521Z,49.50
2018-11-23T07:31:20.981Z,48.81
2018-11-23T07:32:24.397Z,48.92
2018-11-23T07:33:27.822Z,48.93
2018-11-23T07:34:31.402Z,48.79
2018-11-23T07:35:34.867Z,48.61
2018-11-23T07:36:38.369Z,48.62
2018-11-23T07:37:41.811Z,48.63
2018-11-23T07:38:45.229Z,48.89
2018-11-23T07:40:00.028Z,48.18
2018-11-23T07:41:14.947Z,48.36
2018-11-23T07:42:21.428Z,48.35
2018-11-23T07:43:24.905Z,48.62
2018-11-23T07:44:28.561Z,48.52
2018-11-23T07:45:32.445Z,48.88
2018-11-23T07:46:35.947Z,49.11
2018-11-23T07:47:39.438Z,48.89
2018-11-23T07:48:42.859Z,48.39
2018-11-23T07:49:46.506Z,48.88
2018-11-23T07:50:49.984Z,48.72
2018-11-23T07:51:53.410Z,48.61
2018-11-23T07:52:56.858Z,48.92
2018-11-23T07:54:00.282Z,49.02
2018-11-23T07:55:04.005Z,48.91
2018-11-23T07:56:08.632Z,48.06
2018-11-23T07:57:12.627Z,47.98
2018-11-23T07:58:16.272Z,48.25
2018-11-23T07:59:19.681Z,48.32
2018-11-23T08:00:24.213Z,47.96
2018-11-23T08:01:28.301Z,47.45
2018-11-23T08:02:31.730Z,47.35
2018-11-23T08:03:35.213Z,47.22
2018-11-23T08:04:39.730Z,47.15
2018-11-23T08:05:43.559Z,46.86
2018-11-23T08:06:47.108Z,46.86
2018-11-23T08:07:50.583Z,46.01
2018-11-23T08:08:54.844Z,45.85
2018-11-23T08:09:57.505Z,45.73
2018-11-23T08:11:04.825Z,46.46
2018-11-23T08:12:09.401Z,45.75
2018-11-23T08:13:13.632Z,45.58
2018-11-23T08:14:17.316Z,46.03
2018-11-23T08:15:22.060Z,45.86
2018-11-23T08:16:25.498Z,46.33
2018-11-23T08:17:28.950Z,45.70
2018-11-23T08:18:32.424Z,45.73
2018-11-23T08:19:35.867Z,46.20
2018-11-23T08:20:40.974Z,46.06
2018-11-23T08:21:44.567Z,46.67
2018-11-23T08:22:49.466Z,46.52
2018-11-23T08:23:52.874Z,46.81
2018-11-23T08:24:56.301Z,46.52
2018-11-23T08:25:59.656Z,46.21
2018-11-23T08:27:03.113Z,46.82
2018-11-23T08:28:06.882Z,46.61
2018-11-23T08:29:12.104Z,46.10
2018-11-23T08:30:23.191Z,46.96
2018-11-23T08:31:26.902Z,46.55
2018-11-23T08:32:30.374Z,46.99
2018-11-23T08:33:34.161Z,46.38
2018-11-23T08:34:37.577Z,46.61
2018-11-23T08:35:40.994Z,46.70
2018-11-23T08:36:45.769Z,46.74
2018-11-23T08:37:49.424Z,47.06
2018-11-23T08:38:53.229Z,47.06
2018-11-23T08:39:57.943Z,46.92
2018-11-23T08:41:02.484Z,46.96
2018-11-23T08:42:06.730Z,46.94
2018-11-23T08:43:10.690Z,47.20
2018-11-23T08:44:15.274Z,47.55
2018-11-23T08:45:21.901Z,47.46
2018-11-23T08:46:25.338Z,47.98
2018-11-23T08:47:29.439Z,47.10
2018-11-23T08:48:32.881Z,46.91
2018-11-23T08:49:36.356Z,46.63
2018-11-23T08:50:39.841Z,47.21
2018-11-23T08:51:43.283Z,47.16
2018-11-23T08:52:46.730Z,46.89
2018-11-23T08:53:50.157Z,46.87
2018-11-23T08:54:53.607Z,47.33
2018-11-23T08:55:57.074Z,47.95
2018-11-23T08:57:00.556Z,47.72
2018-11-23T08:58:04.037Z,47.55
2018-11-23T08:59:07.442Z,47.77
2018-11-23T09:00:31.386Z,47.52
2018-11-23T09:01:34.815Z,47.50
2018-11-23T09:02:38.214Z,47.88
2018-11-23T09:03:41.641Z,47.79
2018-11-23T09:04:45.105Z,47.78
2018-11-23T09:05:48.532Z,47.46
2018-11-23T09:06:51.927Z,47.73
2018-11-23T09:07:56.291Z,48.19
2018-11-23T09:08:59.666Z,48.38
2018-11-23T09:10:03.117Z,48.51
2018-11-23T09:11:07.221Z,48.90
2018-11-23T09:12:10.698Z,48.77
2018-11-23T09:13:14.163Z,48.07
2018-11-23T09:14:17.570Z,48.53
2018-11-23T09:15:21.025Z,47.81
2018-11-23T09:16:24.475Z,48.51
2018-11-23T09:17:27.898Z,47.58
2018-11-23T09:18:31.700Z,48.06
2018-11-23T09:19:34.938Z,47.53
2018-11-23T09:20:38.347Z,48.02
2018-11-23T09:21:41.749Z,47.61
2018-11-23T09:22:45.540Z,47.44
2018-11-23T09:23:49.035Z,47.79
2018-11-23T09:24:52.612Z,47.77
2018-11-23T09:25:55.997Z,48.11
2018-11-23T09:26:59.422Z,47.60
2018-11-23T09:28:02.858Z,47.77
2018-11-23T09:29:06.383Z,48.57
2018-11-23T09:30:14.517Z,48.89
2018-11-23T09:31:17.967Z,48.16
2018-11-23T09:32:21.415Z,46.71
2018-11-23T09:33:24.860Z,46.47
2018-11-23T09:34:28.372Z,46.30
2018-11-23T09:35:31.808Z,46.23
2018-11-23T09:36:35.267Z,45.73
2018-11-23T09:37:39.543Z,45.44
2018-11-23T09:38:43.041Z,45.73
2018-11-23T09:39:46.603Z,45.64
2018-11-23T09:40:50.065Z,44.83
2018-11-23T09:41:53.457Z,45.19
2018-11-23T09:42:57.718Z,44.01
2018-11-23T09:44:01.162Z,43.86
2018-11-23T09:45:05.520Z,43.76
2018-11-23T09:46:08.953Z,43.01
2018-11-23T09:47:12.376Z,43.00
2018-11-23T09:48:15.925Z,43.69
2018-11-23T09:49:19.335Z,43.13
2018-11-23T09:50:23.710Z,42.74
2018-11-23T09:51:27.217Z,42.30
2018-11-23T09:52:30.693Z,42.80
2018-11-23T09:53:34.149Z,42.27
2018-11-23T09:54:37.559Z,42.67
2018-11-23T09:55:41.788Z,43.14
2018-11-23T09:56:45.708Z,42.62
2018-11-23T09:57:49.482Z,42.54
2018-11-23T09:58:52.913Z,42.29
2018-11-23T09:59:56.390Z,42.62
2018-11-23T10:00:59.863Z,42.42
2018-11-23T10:02:03.300Z,42.42
2018-11-23T10:03:07.350Z,42.01
2018-11-23T10:04:10.770Z,42.11
2018-11-23T10:05:15.007Z,42.18
2018-11-23T10:06:18.494Z,42.27
2018-11-23T10:07:21.933Z,42.17
2018-11-23T10:08:25.400Z,42.57
2018-11-23T10:09:28.888Z,42.21
2018-11-23T10:10:32.472Z,41.67
2018-11-23T10:11:35.925Z,41.96
2018-11-23T10:12:39.689Z,42.03
2018-11-23T10:13:43.090Z,42.24
2018-11-23T10:14:46.531Z,42.39
2018-11-23T10:15:50.066Z,41.83
2018-11-23T10:16:53.523Z,42.32
2018-11-23T10:17:56.984Z,42.06
2018-11-23T10:19:00.419Z,42.08
2018-11-23T10:20:04.576Z,41.44
2018-11-23T10:21:08.023Z,41.76
2018-11-23T10:22:11.464Z,41.58
2018-11-23T10:23:14.888Z,41.83
2018-11-23T10:24:18.294Z,41.06
2018-11-23T10:25:23.117Z,41.06
2018-11-23T10:26:26.588Z,41.21
2018-11-23T10:27:30.029Z,41.65
2018-11-23T10:28:33.478Z,41.56
2018-11-23T10:29:36.885Z,41.91
2018-11-23T10:30:40.309Z,41.85
2018-11-23T10:31:43.742Z,41.66
2018-11-23T10:32:48.315Z,41.81
2018-11-23T10:33:51.870Z,41.75
2018-11-23T10:34:55.321Z,41.46
2018-11-23T10:35:58.840Z,41.50
2018-11-23T10:37:02.231Z,41.04
2018-11-23T10:38:06.476Z,41.17
2018-11-23T10:39:09.957Z,41.68
2018-11-23T10:40:15.835Z,41.37
2018-11-23T10:41:19.268Z,42.02
2018-11-23T10:42:22.954Z,42.08
2018-11-23T10:43:26.429Z,41.75
2018-11-23T10:44:29.857Z,42.11
2018-11-23T10:45:34.006Z,41.37
2018-11-23T10:46:37.458Z,41.81
2018-11-23T10:47:41.180Z,41.84
2018-11-23T10:48:44.665Z,41.84
2018-11-23T10:49:48.092Z,41.66
2018-11-23T10:50:51.525Z,41.17
2018-11-23T10:51:54.942Z,41.67
2018-11-23T10:52:58.351Z,41.67
2018-11-23T10:54:01.792Z,41.38
2018-11-23T10:55:07.050Z,41.88
2018-11-23T10:56:10.474Z,41.42
2018-11-23T10:57:13.917Z,41.44
2018-11-23T10:58:17.442Z,41.46
2018-11-23T10:59:20.868Z,41.58
2018-11-23T11:00:29.743Z,41.74
2018-11-23T11:01:38.417Z,42.24
2018-11-23T11:02:45.182Z,42.24
2018-11-23T11:03:53.797Z,42.56
2018-11-23T11:05:30.668Z,42.17
2018-11-23T11:06:39.319Z,42.18
2018-11-23T11:07:42.717Z,42.76
2018-11-23T11:08:46.487Z,42.69
2018-11-23T11:09:49.934Z,42.62
2018-11-23T11:10:53.628Z,43.09
2018-11-23T11:11:57.044Z,43.45
2018-11-23T11:13:00.466Z,43.46
2018-11-23T11:14:03.948Z,43.63
2018-11-23T11:15:08.198Z,43.08
2018-11-23T11:16:14.566Z,43.64
2018-11-23T11:17:18.069Z,43.75
2018-11-23T11:18:21.479Z,43.40
2018-11-23T11:19:25.396Z,43.44
2018-11-23T11:20:28.835Z,43.96
2018-11-23T11:21:32.278Z,44.17
2018-11-23T11:22:35.838Z,43.78
2018-11-23T11:23:39.393Z,43.93
2018-11-23T11:24:42.920Z,44.06
2018-11-23T11:25:47.195Z,43.92
2018-11-23T11:26:50.621Z,44.14
2018-11-23T11:27:54.211Z,44.57
2018-11-23T11:28:57.693Z,44.54
2018-11-23T11:30:01.130Z,44.12
2018-11-23T11:31:04.965Z,44.45
2018-11-23T11:32:08.375Z,44.30
2018-11-23T11:33:11.793Z,44.28
2018-11-23T11:34:15.256Z,44.29
2018-11-23T11:35:18.721Z,45.04
2018-11-23T11:36:22.168Z,44.51
2018-11-23T11:37:25.603Z,44.65
2018-11-23T11:38:29.093Z,44.55
2018-11-23T11:39:32.468Z,45.11
2018-11-23T11:40:35.910Z,44.56
2018-11-23T11:41:39.532Z,45.19
2018-11-23T11:42:43.513Z,45.15
2018-11-23T11:43:47.008Z,45.04
2018-11-23T11:44:50.461Z,44.78
2018-11-23T11:45:53.889Z,44.95
2018-11-23T11:46:57.333Z,45.09
2018-11-23T11:48:00.751Z,45.63
2018-11-23T11:49:04.399Z,45.02
2018-11-23T11:50:09.630Z,45.39
2018-11-23T11:51:13.218Z,45.42
2018-11-23T11:52:16.634Z,45.24
2018-11-23T11:53:20.068Z,45.84
2018-11-23T11:54:23.491Z,45.42
2018-11-23T11:55:26.887Z,45.89
2018-11-23T11:56:30.339Z,45.36
2018-11-23T11:57:33.735Z,45.65
2018-11-23T11:58:37.430Z,45.95
2018-11-23T11:59:40.883Z,45.80
2018-11-23T12:00:44.311Z,46.06
2018-11-23T12:01:47.955Z,46.10
2018-11-23T12:02:51.353Z,46.15
2018-11-23T12:03:55.318Z,45.89
2018-11-23T12:04:58.739Z,45.95
2018-11-23T12:06:02.155Z,45.92
2018-11-23T12:07:06.229Z,45.58
2018-11-23T12:08:09.629Z,44.90
2018-11-23T12:09:13.150Z,44.64
2018-11-23T12:10:19.485Z,44.37
2018-11-23T12:11:22.911Z,43.94
2018-11-23T12:12:26.526Z,43.45
2018-11-23T12:13:29.939Z,43.94
2018-11-23T12:14:33.351Z,43.42
2018-11-23T12:15:36.750Z,43.70
2018-11-23T12:16:40.194Z,43.42
2018-11-23T12:17:43.853Z,43.34
2018-11-23T12:18:47.318Z,43.70
2018-11-23T12:19:51.608Z,43.93
2018-11-23T12:20:55.172Z,43.90
2018-11-23T12:21:58.709Z,43.44
2018-11-23T12:23:02.472Z,44.10
2018-11-23T12:24:06.586Z,44.05
2018-11-23T12:25:10.399Z,44.02
2018-11-23T12:26:14.423Z,44.07
2018-11-23T12:27:17.918Z,43.66
2018-11-23T12:28:21.340Z,43.49
2018-11-23T12:29:24.751Z,43.65
2018-11-23T12:30:29.131Z,43.77
2018-11-23T12:31:32.625Z,43.92
2018-11-23T12:32:36.062Z,44.00
2018-11-23T12:33:39.471Z,43.51
2018-11-23T12:34:42.930Z,43.69
2018-11-23T12:35:46.646Z,43.79
2018-11-23T12:36:50.128Z,44.51
2018-11-23T12:37:53.595Z,44.28
2018-11-23T12:38:56.983Z,44.22
2018-11-23T12:40:00.411Z,43.88
2018-11-23T12:41:03.852Z,44.38
2018-11-23T12:42:07.288Z,44.55
2018-11-23T12:43:10.721Z,44.21
2018-11-23T12:44:14.389Z,43.96
2018-11-23T12:45:20.916Z,43.92
2018-11-23T12:46:24.314Z,44.24
2018-11-23T12:47:27.702Z,44.01
2018-11-23T12:48:31.142Z,44.56
2018-11-23T12:49:34.570Z,43.96
2018-11-23T12:50:38.065Z,44.07
2018-11-23T12:51:41.486Z,44.13
2018-11-23T12:52:45.109Z,44.05
2018-11-23T12:53:48.524Z,44.12
2018-11-23T12:54:51.944Z,44.10
2018-11-23T12:55:55.373Z,44.24
2018-11-23T12:56:58.800Z,44.06
2018-11-23T12:58:02.234Z,44.18
2018-11-23T12:59:05.987Z,44.52
2018-11-23T13:00:16.624Z,44.40
2018-11-23T13:01:20.509Z,44.31
2018-11-23T13:02:23.936Z,44.54
2018-11-23T13:03:27.597Z,44.32
2018-11-23T13:04:31.394Z,44.16
2018-11-23T13:05:35.779Z,44.73
2018-11-23T13:06:39.174Z,44.67
2018-11-23T13:07:42.615Z,44.72
2018-11-23T13:08:46.121Z,44.28
2018-11-23T13:09:49.539Z,44.94
2018-11-23T13:10:52.933Z,44.44
2018-11-23T13:11:56.382Z,44.78
2018-11-23T13:13:00.438Z,44.45
2018-11-23T13:14:03.875Z,45.06
2018-11-23T13:15:07.991Z,44.85
2018-11-23T13:16:11.421Z,44.32
2018-11-23T13:17:14.876Z,44.47
2018-11-23T13:18:18.348Z,44.82
2018-11-23T13:19:21.762Z,45.06
2018-11-23T13:20:25.257Z,45.01
2018-11-23T13:21:28.710Z,45.14
2018-11-23T13:22:32.133Z,44.96
2018-11-23T13:23:35.540Z,44.87
2018-11-23T13:24:38.977Z,44.81
2018-11-23T13:25:42.427Z,44.45
2018-11-23T13:26:45.866Z,44.34
2018-11-23T13:27:49.274Z,43.71
2018-11-23T13:28:52.678Z,43.36
2018-11-23T13:29:56.094Z,43.39
2018-11-23T13:30:59.513Z,43.69
2018-11-23T13:32:02.935Z,43.69
2018-11-23T13:33:06.454Z,43.06
2018-11-23T13:34:09.883Z,42.95
2018-11-23T13:35:15.188Z,42.96
2018-11-23T13:36:18.649Z,43.12
2018-11-23T13:37:22.068Z,42.81
2018-11-23T13:38:25.475Z,43.00
2018-11-23T13:39:28.860Z,43.08
2018-11-23T13:40:32.348Z,43.25
2018-11-23T13:41:35.820Z,43.04
2018-11-23T13:42:39.381Z,42.70